METAR Data
IDs: Format: Raw Decoded Include TAF

Data at: 0120 UTC 06 Dec 2019

KBED 060051Z 28010KT 10SM OVC060 01/M09 A2982 RMK AO2 SLP115 T00111089
KBED 052351Z 28011KT 10SM SCT060 02/M10 A2980 RMK AO2 SLP106 T00171100 10056 20017 51038
KBED 052251Z 27012G19KT 10SM CLR 03/M09 A2976 RMK AO2 SLP092 T00281094
KBED 052151Z 27009KT 10SM BKN065 03/M07 A2973 RMK AO2 SLP082 T00331072
KBED 052051Z 27014G20KT 10SM FEW041 SCT060 04/M06 A2968 RMK AO2 SLP067 T00391056 51032
KBED 051951Z 27011G21KT 10SM BKN050 05/M05 A2965 RMK AO2 SLP057 T00501050
KBED 051851Z 28012KT 10SM BKN050 05/M04 A2962 RMK AO2 SLP046 T00501044
KBED 051751Z 27011KT 10SM SCT041 BKN050 06/M04 A2959 RMK AO2 SLP035 I6000 T00561039 10061 21061 51003
KBED 051651Z 29011KT 10SM FEW055 SCT200 06/M03 A2959 RMK AO2 SLP035 T00561033
KBED 051551Z 29011G19KT 10SM SCT200 05/M03 A2958 RMK AO2 SLP033 T00501033
KBED 051451Z 27008KT 10SM CLR 04/M03 A2958 RMK AO2 SLP032 I3000 T00391028 51015
KBED 051351Z 25004KT 10SM CLR M01/M03 A2957 RMK AO2 SLP028 T10061028
KBED 051251Z 23003KT 10SM MIFG SCT250 M02/M03 A2955 RMK AO2 SLP022 I1000 T10171033
KBED 051233Z 23006KT 10SM MIFG CLR M03/M05 A2954 RMK AO2 I1000 T10281050
KBED 051226Z 24004KT 1SM R11/P6000FT BR CLR M05/M07 A2955 RMK AO2 VIS 1/4V5 T10501072
KBED 051208Z 24004KT 1/4SM R11/5000VP6000FT FZFG CLR M05/M06 A2954 RMK AO2 T10501061
KBED 051153Z 24004KT 3SM BR CLR M03/M05 A2954 RMK AO2 T10281050
KBED 051151Z 24004KT 1 1/2SM BR CLR M04/M06 A2953 RMK AO2 SLP017 I1000 I6002 T10391061 10000 21072 51015
KBED 051147Z 24004KT 3/4SM R11/P6000FT BR CLR M07/M09 A2953 RMK AO2 I1000
KBED 051138Z AUTO 00000KT 1 3/4SM R11/5500VP6000FT BR CLR M06/M07 A2953 RMK AO2 T10611072
KBED 051127Z AUTO 24003KT 3SM R11/4000VP6000FT BR CLR M05/M07 A2953 RMK AO2 T10501072
KBED 051124Z AUTO 23003KT 1 1/4SM R11/1800VP6000FT BR CLR M06/M07 A2953 RMK AO2 T10611072
KBED 051113Z AUTO 00000KT 1/2SM R11/5500VP6000FT FZFG VV003 M06/M07 A2952 RMK AO2 T10561072
KBED 051056Z AUTO 00000KT 1 1/2SM BR CLR M05/M06 A2951 RMK AO2 T10501061
KBED 051051Z AUTO 23003KT 10SM CLR M02/M03 A2951 RMK AO2 SLP009 T10171033
KBED 051025Z AUTO 25003KT 3SM R11/4500VP6000FT BR FEW070 M04/M06 A2950 RMK AO2 T10391056
KBED 051009Z AUTO 00000KT 1SM R11/2400VP6000FT BR FEW075 M04/M05 A2950 RMK AO2 T10391050
KBED 050955Z AUTO 00000KT 2SM R11/1800VP6000FT BR FEW080 M03/M05 A2949 RMK AO2 VIS 1/2V5 T10331050
KBED 050951Z AUTO 00000KT 3/4SM R11/1800VP6000FT BR FEW080 M04/M06 A2949 RMK AO2 SLP003 I1001 T10441061
KBED 050949Z AUTO 00000KT 3/4SM R11/1800VP6000FT BR FEW080 M05/M06 A2949 RMK AO2 I1001
KBED 050942Z AUTO 00000KT 1SM R11/3000VP6000FT BR FEW080 M05/M07 A2949 RMK AO2 I1000 T10501067
KBED 050934Z AUTO 22003KT 3/4SM R11/1400VP6000FT BR FEW085 M05/M07 A2949 RMK AO2 I1000 T10501067
KBED 050925Z AUTO 25003KT 1 1/2SM R11/1400VP6000FT BR BKN085 M04/M06 A2948 RMK AO2 I1000 T10391056
KBED 050851Z AUTO 25003KT 10SM OVC075 M01/M03 A2948 RMK AO2 SLP997 I3001 T10111028 51006
KBED 050751Z AUTO 23004KT 4SM HZ OVC070 M04/M07 A2947 RMK AO2 SLP996 I1001 T10391067
KBED 050740Z AUTO 24004KT 3SM R11/5000VP6000FT BR BKN070 M03/M06 A2947 RMK AO2 I1000 T10331056
KBED 050729Z AUTO 25003KT 1 3/4SM R11/5500VP6000FT BR FEW050 BKN070 M05/M07 A2947 RMK AO2 VIS 3/4V4 I1000 T10501072
KBED 050651Z AUTO 24003KT 7SM BKN060 OVC070 M03/M04 A2947 RMK AO2 SLP993 T10281044
KBED 050646Z AUTO 24004KT 3SM BR BKN060 M03/M04 A2946 RMK AO2
KBED 050640Z AUTO 24003KT 1SM R11/P6000FT BR BKN060 BKN075 M04/M06 A2947 RMK AO2 T10391056
KBED 050551Z AUTO 24004KT 10SM OVC065 00/M03 A2946 RMK AO2 SLP990 T00001028 10017 21006 55001
KBED 050451Z AUTO 24004KT 10SM BKN070 BKN110 01/M03 A2945 RMK AO2 SLP989 T00061028 400281083
KBED 050351Z AUTO 23003KT 10SM BKN060 01/M02 A2946 RMK AO2 SLP992 T00061022
KBED 050251Z 24003KT 10SM CLR 01/M02 A2946 RMK AO2 SLP991 T00061022 58001
KBED 050151Z 23003KT 10SM OVC060 01/M02 A2947 RMK AO2 SLP994 T00111022
KBED 050051Z 00000KT 10SM OVC055 01/M02 A2947 RMK AO2 SLP996 T00111017
KBED 042351Z 24004KT 10SM OVC055 02/M02 A2947 RMK AO2 SLP994 T00171022 10028 20006 51006
KBED 042251Z 00000KT 10SM OVC047 01/M02 A2946 RMK AO2 SLP993 T00111017
KBED 042151Z 00000KT 10SM OVC049 01/M02 A2945 RMK AO2 SLP990 T00111017
KBED 042051Z 20003KT 10SM OVC049 02/M02 A2945 RMK AO2 SLP988 T00221022 56005
KBED 041951Z 20005KT 10SM OVC050 03/M02 A2945 RMK AO2 SLP990 T00281022
KBED 041851Z 21005KT 10SM OVC055 02/M02 A2945 RMK AO2 SLP989 T00221022
KBED 041751Z 22004KT 10SM OVC055 02/M03 A2946 RMK AO2 SLP993 T00171028 10017 21044 58015
KBED 041651Z 23006KT 10SM OVC060 01/M03 A2949 RMK AO2 SLP001 T00111033
KBED 041551Z COR 22007KT 10SM BKN060 OVC080 01/M04 A2950 RMK AO2 SLP007 T00111044
KBED 041451Z 23003KT 10SM BKN090 M01/M06 A2951 RMK AO2 SLP008 T10061061 51001
KBED 041351Z 22003KT 10SM SCT090 M02/M07 A2951 RMK AO2 SLP008 T10221067